sensor_id;sensor_type;location;lat;lon;timestamp;temperature;humidity
51021;DHT22;38907;45.562;8.856;2022-11-15T00:03:41;8.00;99.90
51021;DHT22;38907;45.562;8.856;2022-11-15T00:08:43;8.00;99.90
51021;DHT22;38907;45.562;8.856;2022-11-15T00:13:46;8.20;99.90
51021;DHT22;38907;45.562;8.856;2022-11-15T00:18:48;8.10;99.90
51021;DHT22;38907;45.562;8.856;2022-11-15T00:23:50;8.10;99.90
51021;DHT22;38907;45.562;8.856;2022-11-15T00:28:53;7.90;99.90
51021;DHT22;38907;45.562;8.856;2022-11-15T00:33:55;7.90;99.90
51021;DHT22;38907;45.562;8.856;2022-11-15T00:38:57;8.00;99.90
51021;DHT22;38907;45.562;8.856;2022-11-15T00:44:00;8.10;99.90
51021;DHT22;38907;45.562;8.856;2022-11-15T00:49:02;8.10;99.90
51021;DHT22;38907;45.562;8.856;2022-11-15T00:54:04;8.10;99.90
51021;DHT22;38907;45.562;8.856;2022-11-15T00:59:07;7.90;99.90
51021;DHT22;38907;45.562;8.856;2022-11-15T01:04:09;7.80;99.90
51021;DHT22;38907;45.562;8.856;2022-11-15T01:09:11;7.90;99.90
51021;DHT22;38907;45.562;8.856;2022-11-15T01:14:15;7.80;99.90
51021;DHT22;38907;45.562;8.856;2022-11-15T01:19:17;7.80;99.90
51021;DHT22;38907;45.562;8.856;2022-11-15T01:24:19;7.80;99.90
51021;DHT22;38907;45.562;8.856;2022-11-15T01:29:22;7.80;99.90
51021;DHT22;38907;45.562;8.856;2022-11-15T01:34:24;7.90;99.90
51021;DHT22;38907;45.562;8.856;2022-11-15T01:39:26;8.00;99.90
51021;DHT22;38907;45.562;8.856;2022-11-15T01:44:43;7.90;99.90
51021;DHT22;38907;45.562;8.856;2022-11-15T01:49:52;7.80;99.90
51021;DHT22;38907;45.562;8.856;2022-11-15T01:55:00;7.70;99.90
51021;DHT22;38907;45.562;8.856;2022-11-15T02:00:06;7.60;99.90
51021;DHT22;38907;45.562;8.856;2022-11-15T02:05:09;7.40;99.90
51021;DHT22;38907;45.562;8.856;2022-11-15T02:10:13;7.30;99.90
51021;DHT22;38907;45.562;8.856;2022-11-15T02:15:17;7.40;99.90
51021;DHT22;38907;45.562;8.856;2022-11-15T02:25:56;7.60;99.90
51021;DHT22;38907;45.562;8.856;2022-11-15T02:31:03;7.50;99.90
51021;DHT22;38907;45.562;8.856;2022-11-15T02:36:11;7.50;99.90
51021;DHT22;38907;45.562;8.856;2022-11-15T02:41:20;7.60;99.90
51021;DHT22;38907;45.562;8.856;2022-11-15T02:46:32;7.70;99.90
51021;DHT22;38907;45.562;8.856;2022-11-15T02:51:53;7.70;99.90
51021;DHT22;38907;45.562;8.856;2022-11-15T02:56:58;7.80;99.90
51021;DHT22;38907;45.562;8.856;2022-11-15T03:02:06;7.80;99.90
51021;DHT22;38907;45.562;8.856;2022-11-15T03:07:14;7.80;99.90
51021;DHT22;38907;45.562;8.856;2022-11-15T03:12:23;7.80;99.90
51021;DHT22;38907;45.562;8.856;2022-11-15T03:17:30;8.00;99.90
51021;DHT22;38907;45.562;8.856;2022-11-15T03:22:36;8.00;99.90
51021;DHT22;38907;45.562;8.856;2022-11-15T03:27:43;8.00;99.90
51021;DHT22;38907;45.562;8.856;2022-11-15T03:32:51;8.10;99.90
51021;DHT22;38907;45.562;8.856;2022-11-15T03:37:59;8.10;99.90
51021;DHT22;38907;45.562;8.856;2022-11-15T03:43:06;8.10;99.90
51021;DHT22;38907;45.562;8.856;2022-11-15T03:48:16;8.20;99.90
51021;DHT22;38907;45.562;8.856;2022-11-15T03:53:20;8.20;99.90
51021;DHT22;38907;45.562;8.856;2022-11-15T03:58:22;8.30;99.90
51021;DHT22;38907;45.562;8.856;2022-11-15T04:03:25;8.20;99.90
51021;DHT22;38907;45.562;8.856;2022-11-15T04:08:27;8.40;99.90
51021;DHT22;38907;45.562;8.856;2022-11-15T04:13:29;8.40;99.90
51021;DHT22;38907;45.562;8.856;2022-11-15T04:18:32;8.20;99.90
51021;DHT22;38907;45.562;8.856;2022-11-15T04:23:34;8.30;99.90
51021;DHT22;38907;45.562;8.856;2022-11-15T04:28:53;8.30;99.90
51021;DHT22;38907;45.562;8.856;2022-11-15T04:34:14;8.40;99.90
51021;DHT22;38907;45.562;8.856;2022-11-15T04:39:15;8.30;99.90
51021;DHT22;38907;45.562;8.856;2022-11-15T04:44:17;8.20;99.90
51021;DHT22;38907;45.562;8.856;2022-11-15T04:49:21;8.20;99.90
51021;DHT22;38907;45.562;8.856;2022-11-15T04:54:22;8.20;99.90
51021;DHT22;38907;45.562;8.856;2022-11-15T04:59:24;8.20;99.90
51021;DHT22;38907;45.562;8.856;2022-11-15T05:04:28;8.20;99.90
51021;DHT22;38907;45.562;8.856;2022-11-15T05:09:29;8.30;99.90
51021;DHT22;38907;45.562;8.856;2022-11-15T05:14:31;8.40;99.90
51021;DHT22;38907;45.562;8.856;2022-11-15T05:19:34;8.40;99.90
51021;DHT22;38907;45.562;8.856;2022-11-15T05:24:37;8.50;99.90
51021;DHT22;38907;45.562;8.856;2022-11-15T05:29:39;8.60;99.90
51021;DHT22;38907;45.562;8.856;2022-11-15T05:34:42;8.60;99.90
51021;DHT22;38907;45.562;8.856;2022-11-15T05:39:44;8.70;99.90
51021;DHT22;38907;45.562;8.856;2022-11-15T05:44:48;8.60;99.90
51021;DHT22;38907;45.562;8.856;2022-11-15T05:49:52;8.60;99.90
51021;DHT22;38907;45.562;8.856;2022-11-15T05:54:55;8.70;99.90
51021;DHT22;38907;45.562;8.856;2022-11-15T05:59:58;8.70;99.90
51021;DHT22;38907;45.562;8.856;2022-11-15T06:05:01;8.80;99.90
51021;DHT22;38907;45.562;8.856;2022-11-15T06:10:04;8.80;99.90
51021;DHT22;38907;45.562;8.856;2022-11-15T06:15:07;8.80;99.90
51021;DHT22;38907;45.562;8.856;2022-11-15T06:20:11;8.70;99.90
51021;DHT22;38907;45.562;8.856;2022-11-15T06:25:13;8.80;99.90
51021;DHT22;38907;45.562;8.856;2022-11-15T06:30:15;8.70;99.90
51021;DHT22;38907;45.562;8.856;2022-11-15T06:35:18;8.70;99.90
51021;DHT22;38907;45.562;8.856;2022-11-15T06:40:20;8.80;99.90
51021;DHT22;38907;45.562;8.856;2022-11-15T06:45:21;8.90;99.90
51021;DHT22;38907;45.562;8.856;2022-11-15T06:50:25;8.90;99.90
51021;DHT22;38907;45.562;8.856;2022-11-15T06:55:27;9.00;99.90
51021;DHT22;38907;45.562;8.856;2022-11-15T07:00:28;9.00;99.90
51021;DHT22;38907;45.562;8.856;2022-11-15T07:05:32;8.90;99.90
51021;DHT22;38907;45.562;8.856;2022-11-15T07:10:34;9.00;99.90
51021;DHT22;38907;45.562;8.856;2022-11-15T07:15:36;9.10;99.90
51021;DHT22;38907;45.562;8.856;2022-11-15T07:20:39;9.10;99.90
51021;DHT22;38907;45.562;8.856;2022-11-15T07:25:41;9.20;99.90
51021;DHT22;38907;45.562;8.856;2022-11-15T07:30:43;9.10;99.90
51021;DHT22;38907;45.562;8.856;2022-11-15T07:35:46;9.10;99.90
51021;DHT22;38907;45.562;8.856;2022-11-15T07:40:56;9.10;99.90
51021;DHT22;38907;45.562;8.856;2022-11-15T07:45:57;9.20;99.90
51021;DHT22;38907;45.562;8.856;2022-11-15T07:51:01;9.10;99.90
51021;DHT22;38907;45.562;8.856;2022-11-15T07:56:06;9.20;99.90
51021;DHT22;38907;45.562;8.856;2022-11-15T08:01:09;9.20;99.90
51021;DHT22;38907;45.562;8.856;2022-11-15T08:06:12;9.30;99.90
51021;DHT22;38907;45.562;8.856;2022-11-15T08:11:14;9.40;99.90
51021;DHT22;38907;45.562;8.856;2022-11-15T08:16:16;9.40;99.90
51021;DHT22;38907;45.562;8.856;2022-11-15T08:21:20;9.30;99.90
51021;DHT22;38907;45.562;8.856;2022-11-15T08:26:22;9.30;99.90
51021;DHT22;38907;45.562;8.856;2022-11-15T08:31:25;9.40;99.90
51021;DHT22;38907;45.562;8.856;2022-11-15T08:36:28;9.50;99.90
51021;DHT22;38907;45.562;8.856;2022-11-15T08:41:33;9.50;99.90
51021;DHT22;38907;45.562;8.856;2022-11-15T08:46:36;9.60;99.90
51021;DHT22;38907;45.562;8.856;2022-11-15T08:51:39;9.60;99.90
51021;DHT22;38907;45.562;8.856;2022-11-15T08:56:41;9.60;99.90
51021;DHT22;38907;45.562;8.856;2022-11-15T09:01:43;9.60;99.90
51021;DHT22;38907;45.562;8.856;2022-11-15T09:06:46;9.70;99.90
51021;DHT22;38907;45.562;8.856;2022-11-15T09:11:48;9.70;99.90
51021;DHT22;38907;45.562;8.856;2022-11-15T09:16:51;9.80;99.90
51021;DHT22;38907;45.562;8.856;2022-11-15T09:21:54;9.70;99.90
51021;DHT22;38907;45.562;8.856;2022-11-15T09:26:56;9.70;99.90
51021;DHT22;38907;45.562;8.856;2022-11-15T09:31:58;9.80;99.90
51021;DHT22;38907;45.562;8.856;2022-11-15T09:37:01;9.70;99.90
51021;DHT22;38907;45.562;8.856;2022-11-15T09:42:17;9.80;99.90
51021;DHT22;38907;45.562;8.856;2022-11-15T09:47:52;9.90;99.90
51021;DHT22;38907;45.562;8.856;2022-11-15T09:53:00;9.90;99.90
51021;DHT22;38907;45.562;8.856;2022-11-15T09:58:09;9.90;99.90
51021;DHT22;38907;45.562;8.856;2022-11-15T10:03:14;9.90;99.90
51021;DHT22;38907;45.562;8.856;2022-11-15T10:08:27;10.00;99.90
51021;DHT22;38907;45.562;8.856;2022-11-15T10:13:32;10.00;99.90
51021;DHT22;38907;45.562;8.856;2022-11-15T10:18:42;9.90;99.90
51021;DHT22;38907;45.562;8.856;2022-11-15T10:23:53;10.00;99.90
51021;DHT22;38907;45.562;8.856;2022-11-15T10:28:55;10.00;99.90
51021;DHT22;38907;45.562;8.856;2022-11-15T10:34:05;10.10;99.90
51021;DHT22;38907;45.562;8.856;2022-11-15T10:39:14;10.10;99.90
51021;DHT22;38907;45.562;8.856;2022-11-15T10:44:27;10.00;99.90
51021;DHT22;38907;45.562;8.856;2022-11-15T10:49:31;10.00;99.90
51021;DHT22;38907;45.562;8.856;2022-11-15T10:54:37;10.10;99.90
51021;DHT22;38907;45.562;8.856;2022-11-15T10:59:46;10.20;99.90
51021;DHT22;38907;45.562;8.856;2022-11-15T11:04:49;10.30;99.90
51021;DHT22;38907;45.562;8.856;2022-11-15T11:09:59;10.30;99.90
51021;DHT22;38907;45.562;8.856;2022-11-15T11:15:10;10.30;99.90
51021;DHT22;38907;45.562;8.856;2022-11-15T11:20:18;10.30;99.90
51021;DHT22;38907;45.562;8.856;2022-11-15T11:25:30;10.40;99.90
51021;DHT22;38907;45.562;8.856;2022-11-15T11:30:45;10.40;99.90
51021;DHT22;38907;45.562;8.856;2022-11-15T11:35:57;10.40;99.90
51021;DHT22;38907;45.562;8.856;2022-11-15T11:41:11;10.50;99.90
51021;DHT22;38907;45.562;8.856;2022-11-15T11:46:27;10.60;99.90
51021;DHT22;38907;45.562;8.856;2022-11-15T11:51:36;10.60;99.90
51021;DHT22;38907;45.562;8.856;2022-11-15T11:56:44;10.50;99.90
51021;DHT22;38907;45.562;8.856;2022-11-15T12:01:46;10.60;99.90
51021;DHT22;38907;45.562;8.856;2022-11-15T12:06:52;10.70;99.90
51021;DHT22;38907;45.562;8.856;2022-11-15T12:12:02;10.70;99.90
51021;DHT22;38907;45.562;8.856;2022-11-15T12:17:08;10.60;99.90
51021;DHT22;38907;45.562;8.856;2022-11-15T12:22:18;10.60;99.90
51021;DHT22;38907;45.562;8.856;2022-11-15T12:27:27;10.60;99.90
51021;DHT22;38907;45.562;8.856;2022-11-15T12:32:34;10.60;99.90
51021;DHT22;38907;45.562;8.856;2022-11-15T12:37:51;10.60;99.90
51021;DHT22;38907;45.562;8.856;2022-11-15T12:48:56;10.70;99.90
51021;DHT22;38907;45.562;8.856;2022-11-15T12:53:58;10.70;99.90
51021;DHT22;38907;45.562;8.856;2022-11-15T12:59:01;10.60;99.90
51021;DHT22;38907;45.562;8.856;2022-11-15T13:04:22;10.60;99.90
51021;DHT22;38907;45.562;8.856;2022-11-15T13:09:53;10.70;99.90
51021;DHT22;38907;45.562;8.856;2022-11-15T13:14:58;10.70;99.90
51021;DHT22;38907;45.562;8.856;2022-11-15T13:20:20;10.70;99.90
51021;DHT22;38907;45.562;8.856;2022-11-15T13:25:46;10.70;99.90
51021;DHT22;38907;45.562;8.856;2022-11-15T13:30:53;10.80;99.90
51021;DHT22;38907;45.562;8.856;2022-11-15T13:35:57;10.70;99.90
51021;DHT22;38907;45.562;8.856;2022-11-15T13:41:13;10.80;99.90
51021;DHT22;38907;45.562;8.856;2022-11-15T13:46:18;10.90;99.90
51021;DHT22;38907;45.562;8.856;2022-11-15T13:51:24;10.80;99.90
51021;DHT22;38907;45.562;8.856;2022-11-15T13:56:29;10.90;99.90
51021;DHT22;38907;45.562;8.856;2022-11-15T14:01:33;10.80;99.90
51021;DHT22;38907;45.562;8.856;2022-11-15T14:06:44;10.80;99.90
51021;DHT22;38907;45.562;8.856;2022-11-15T14:11:52;10.80;99.90
51021;DHT22;38907;45.562;8.856;2022-11-15T14:16:57;10.70;99.90
51021;DHT22;38907;45.562;8.856;2022-11-15T14:22:24;10.70;99.90
51021;DHT22;38907;45.562;8.856;2022-11-15T14:27:28;10.80;99.90
51021;DHT22;38907;45.562;8.856;2022-11-15T14:32:42;10.70;99.90
51021;DHT22;38907;45.562;8.856;2022-11-15T14:37:45;10.70;99.90
51021;DHT22;38907;45.562;8.856;2022-11-15T14:42:48;10.70;99.90
51021;DHT22;38907;45.562;8.856;2022-11-15T14:47:52;10.70;99.90
51021;DHT22;38907;45.562;8.856;2022-11-15T14:52:53;10.70;99.90
51021;DHT22;38907;45.562;8.856;2022-11-15T14:57:55;10.70;99.90
51021;DHT22;38907;45.562;8.856;2022-11-15T15:02:59;10.70;99.90
51021;DHT22;38907;45.562;8.856;2022-11-15T15:08:00;10.70;99.90
51021;DHT22;38907;45.562;8.856;2022-11-15T15:13:03;10.70;99.90
51021;DHT22;38907;45.562;8.856;2022-11-15T15:18:06;10.70;99.90
51021;DHT22;38907;45.562;8.856;2022-11-15T15:23:10;10.60;99.90
51021;DHT22;38907;45.562;8.856;2022-11-15T15:28:15;10.60;99.90
51021;DHT22;38907;45.562;8.856;2022-11-15T15:33:18;10.60;99.90
51021;DHT22;38907;45.562;8.856;2022-11-15T15:38:20;10.60;99.90
51021;DHT22;38907;45.562;8.856;2022-11-15T15:43:22;10.60;99.90
51021;DHT22;38907;45.562;8.856;2022-11-15T15:48:25;10.60;99.90
51021;DHT22;38907;45.562;8.856;2022-11-15T15:53:27;10.60;99.90
51021;DHT22;38907;45.562;8.856;2022-11-15T15:58:29;10.60;99.90
51021;DHT22;38907;45.562;8.856;2022-11-15T16:03:33;10.70;99.90
51021;DHT22;38907;45.562;8.856;2022-11-15T16:08:35;10.70;99.90
51021;DHT22;38907;45.562;8.856;2022-11-15T16:13:37;10.70;99.90
51021;DHT22;38907;45.562;8.856;2022-11-15T16:18:41;10.60;99.90
51021;DHT22;38907;45.562;8.856;2022-11-15T16:23:42;10.60;99.90
51021;DHT22;38907;45.562;8.856;2022-11-15T16:28:44;10.60;99.90
51021;DHT22;38907;45.562;8.856;2022-11-15T16:33:47;10.60;99.90
51021;DHT22;38907;45.562;8.856;2022-11-15T16:38:49;10.60;99.90
51021;DHT22;38907;45.562;8.856;2022-11-15T16:43:51;10.60;99.90
51021;DHT22;38907;45.562;8.856;2022-11-15T16:48:55;10.60;99.90
51021;DHT22;38907;45.562;8.856;2022-11-15T16:53:57;10.60;99.90
51021;DHT22;38907;45.562;8.856;2022-11-15T16:59:00;10.60;99.90
51021;DHT22;38907;45.562;8.856;2022-11-15T17:04:03;10.50;99.90
51021;DHT22;38907;45.562;8.856;2022-11-15T17:09:13;10.60;99.90
51021;DHT22;38907;45.562;8.856;2022-11-15T17:14:16;10.50;99.90
51021;DHT22;38907;45.562;8.856;2022-11-15T17:25:16;10.50;99.90
51021;DHT22;38907;45.562;8.856;2022-11-15T17:30:18;10.50;99.90
51021;DHT22;38907;45.562;8.856;2022-11-15T17:35:19;10.50;99.90
51021;DHT22;38907;45.562;8.856;2022-11-15T17:40:23;10.50;99.90
51021;DHT22;38907;45.562;8.856;2022-11-15T17:45:24;10.50;99.90
51021;DHT22;38907;45.562;8.856;2022-11-15T17:50:26;10.60;99.90
51021;DHT22;38907;45.562;8.856;2022-11-15T17:55:31;10.50;99.90
51021;DHT22;38907;45.562;8.856;2022-11-15T18:00:33;10.50;99.90
51021;DHT22;38907;45.562;8.856;2022-11-15T18:05:37;10.50;99.90
51021;DHT22;38907;45.562;8.856;2022-11-15T18:10:41;10.40;99.90
51021;DHT22;38907;45.562;8.856;2022-11-15T18:15:52;10.30;99.90
51021;DHT22;38907;45.562;8.856;2022-11-15T18:20:59;10.30;99.90
51021;DHT22;38907;45.562;8.856;2022-11-15T18:26:04;10.40;99.90
51021;DHT22;38907;45.562;8.856;2022-11-15T18:31:12;10.40;99.90
51021;DHT22;38907;45.562;8.856;2022-11-15T18:36:17;10.40;99.90
51021;DHT22;38907;45.562;8.856;2022-11-15T18:41:21;10.40;99.90
51021;DHT22;38907;45.562;8.856;2022-11-15T18:46:26;10.50;99.90
51021;DHT22;38907;45.562;8.856;2022-11-15T18:51:28;10.50;99.90
51021;DHT22;38907;45.562;8.856;2022-11-15T18:56:32;10.50;99.90
51021;DHT22;38907;45.562;8.856;2022-11-15T19:01:35;10.40;99.90
51021;DHT22;38907;45.562;8.856;2022-11-15T19:06:38;10.40;99.90
51021;DHT22;38907;45.562;8.856;2022-11-15T19:11:42;10.30;99.90
51021;DHT22;38907;45.562;8.856;2022-11-15T19:16:46;10.30;99.90
51021;DHT22;38907;45.562;8.856;2022-11-15T19:21:49;10.30;99.90
51021;DHT22;38907;45.562;8.856;2022-11-15T19:26:52;10.30;99.90
51021;DHT22;38907;45.562;8.856;2022-11-15T19:31:55;10.40;99.90
51021;DHT22;38907;45.562;8.856;2022-11-15T19:36:57;10.40;99.90
51021;DHT22;38907;45.562;8.856;2022-11-15T19:42:00;10.40;99.90
51021;DHT22;38907;45.562;8.856;2022-11-15T19:47:02;10.50;99.90
51021;DHT22;38907;45.562;8.856;2022-11-15T19:52:04;10.40;99.90
51021;DHT22;38907;45.562;8.856;2022-11-15T19:57:07;10.40;99.90
51021;DHT22;38907;45.562;8.856;2022-11-15T20:02:10;10.50;99.90
51021;DHT22;38907;45.562;8.856;2022-11-15T20:07:12;10.50;99.90
51021;DHT22;38907;45.562;8.856;2022-11-15T20:12:15;10.50;99.90
51021;DHT22;38907;45.562;8.856;2022-11-15T20:17:17;10.50;99.90
51021;DHT22;38907;45.562;8.856;2022-11-15T20:22:19;10.40;99.90
51021;DHT22;38907;45.562;8.856;2022-11-15T20:27:22;10.50;99.90
51021;DHT22;38907;45.562;8.856;2022-11-15T20:32:25;10.40;99.90
51021;DHT22;38907;45.562;8.856;2022-11-15T20:37:27;10.40;99.90
51021;DHT22;38907;45.562;8.856;2022-11-15T20:42:31;10.50;99.90
51021;DHT22;38907;45.562;8.856;2022-11-15T20:47:33;10.50;99.90
51021;DHT22;38907;45.562;8.856;2022-11-15T20:52:34;10.50;99.90
51021;DHT22;38907;45.562;8.856;2022-11-15T20:57:38;10.50;99.90
51021;DHT22;38907;45.562;8.856;2022-11-15T21:02:40;10.50;99.90
51021;DHT22;38907;45.562;8.856;2022-11-15T21:07:42;10.40;99.90
51021;DHT22;38907;45.562;8.856;2022-11-15T21:12:45;10.40;99.90
51021;DHT22;38907;45.562;8.856;2022-11-15T21:17:47;10.50;99.90
51021;DHT22;38907;45.562;8.856;2022-11-15T21:22:49;10.50;99.90
51021;DHT22;38907;45.562;8.856;2022-11-15T21:27:52;10.50;99.90
51021;DHT22;38907;45.562;8.856;2022-11-15T21:32:54;10.50;99.90
51021;DHT22;38907;45.562;8.856;2022-11-15T21:37:56;10.50;99.90
51021;DHT22;38907;45.562;8.856;2022-11-15T21:42:59;10.50;99.90
51021;DHT22;38907;45.562;8.856;2022-11-15T21:48:01;10.40;99.90
51021;DHT22;38907;45.562;8.856;2022-11-15T21:53:03;10.40;99.90
51021;DHT22;38907;45.562;8.856;2022-11-15T21:58:06;10.40;99.90
51021;DHT22;38907;45.562;8.856;2022-11-15T22:03:08;10.50;99.90
51021;DHT22;38907;45.562;8.856;2022-11-15T22:08:10;10.40;99.90
51021;DHT22;38907;45.562;8.856;2022-11-15T22:13:13;10.50;99.90
51021;DHT22;38907;45.562;8.856;2022-11-15T22:18:15;10.50;99.90
51021;DHT22;38907;45.562;8.856;2022-11-15T22:23:18;10.50;99.90
51021;DHT22;38907;45.562;8.856;2022-11-15T22:28:21;10.50;99.90
51021;DHT22;38907;45.562;8.856;2022-11-15T22:33:25;10.50;99.90
51021;DHT22;38907;45.562;8.856;2022-11-15T22:38:28;10.40;99.90
51021;DHT22;38907;45.562;8.856;2022-11-15T22:43:31;10.40;99.90
51021;DHT22;38907;45.562;8.856;2022-11-15T22:48:35;10.50;99.90
51021;DHT22;38907;45.562;8.856;2022-11-15T22:53:37;10.50;99.90
51021;DHT22;38907;45.562;8.856;2022-11-15T22:58:40;10.50;99.90
51021;DHT22;38907;45.562;8.856;2022-11-15T23:03:42;10.50;99.90
51021;DHT22;38907;45.562;8.856;2022-11-15T23:08:44;10.50;99.90
51021;DHT22;38907;45.562;8.856;2022-11-15T23:13:49;10.50;99.90
51021;DHT22;38907;45.562;8.856;2022-11-15T23:18:52;10.50;99.90
51021;DHT22;38907;45.562;8.856;2022-11-15T23:23:54;10.50;99.90
51021;DHT22;38907;45.562;8.856;2022-11-15T23:28:58;10.50;99.90
51021;DHT22;38907;45.562;8.856;2022-11-15T23:34:00;10.60;99.90
51021;DHT22;38907;45.562;8.856;2022-11-15T23:39:02;10.40;99.90
51021;DHT22;38907;45.562;8.856;2022-11-15T23:44:06;10.40;99.90
51021;DHT22;38907;45.562;8.856;2022-11-15T23:49:08;10.30;99.90
51021;DHT22;38907;45.562;8.856;2022-11-15T23:54:10;10.30;99.90
51021;DHT22;38907;45.562;8.856;2022-11-15T23:59:14;10.30;99.90
